createdAt,value
2022-08-26T00:01:44.301Z,17.80
2022-08-26T00:04:12.578Z,16.03
2022-08-26T00:06:42.737Z,13.37
2022-08-26T00:09:16.742Z,14.13
2022-08-26T00:11:45.362Z,14.23
2022-08-26T00:14:13.877Z,18.13
2022-08-26T00:16:47.326Z,19.83
2022-08-26T00:19:17.915Z,13.53
2022-08-26T00:21:46.060Z,15.07
2022-08-26T00:24:13.537Z,15.77
2022-08-26T00:26:41.507Z,21.60
2022-08-26T00:29:08.759Z,14.33
2022-08-26T00:31:36.595Z,13.47
2022-08-26T00:34:04.483Z,14.50
2022-08-26T00:36:32.030Z,14.43
2022-08-26T00:38:59.116Z,13.77
2022-08-26T00:41:26.046Z,13.93
2022-08-26T00:43:53.256Z,13.80
2022-08-26T00:46:34.120Z,18.17
2022-08-26T00:49:11.828Z,14.20
2022-08-26T00:51:49.437Z,13.53
2022-08-26T00:54:19.313Z,16.33
2022-08-26T00:57:15.814Z,12.73
2022-08-26T00:59:48.944Z,16.83
2022-08-26T01:02:20.916Z,22.07
2022-08-26T01:04:55.930Z,14.20
2022-08-26T01:07:26.094Z,14.57
2022-08-26T01:09:53.513Z,14.20
2022-08-26T01:12:21.964Z,15.53
2022-08-26T01:14:49.903Z,19.70
2022-08-26T01:17:17.512Z,24.67
2022-08-26T01:19:48.770Z,13.40
2022-08-26T01:22:43.405Z,17.07
2022-08-26T01:25:11.475Z,24.53
2022-08-26T01:27:38.728Z,17.03
2022-08-26T01:30:06.276Z,17.17
2022-08-26T01:32:33.678Z,12.30
2022-08-26T01:35:01.476Z,13.00
2022-08-26T01:37:34.395Z,13.63
2022-08-26T01:40:01.213Z,14.00
2022-08-26T01:42:28.676Z,19.27
2022-08-26T01:45:09.224Z,11.43
2022-08-26T01:47:37.820Z,17.53
2022-08-26T01:50:10.636Z,19.40
2022-08-26T01:52:41.392Z,15.50
2022-08-26T01:55:10.227Z,12.67
2022-08-26T01:57:37.546Z,13.27
2022-08-26T02:00:08.094Z,16.27
2022-08-26T02:02:34.985Z,23.67
2022-08-26T02:05:07.163Z,15.10
2022-08-26T02:07:34.380Z,18.13
2022-08-26T02:10:01.211Z,17.70
2022-08-26T02:12:28.300Z,14.30
2022-08-26T02:15:00.110Z,20.20
2022-08-26T02:17:35.072Z,15.63
2022-08-26T02:20:02.938Z,17.63
2022-08-26T02:22:31.635Z,15.67
2022-08-26T02:25:06.003Z,13.47
2022-08-26T02:27:35.318Z,14.20
2022-08-26T02:30:11.184Z,15.47
2022-08-26T02:32:38.357Z,18.30
2022-08-26T02:35:08.701Z,12.30
2022-08-26T02:37:36.216Z,15.67
2022-08-26T02:40:04.873Z,14.23
2022-08-26T02:42:31.665Z,14.33
2022-08-26T02:44:58.818Z,14.73
2022-08-26T02:47:25.749Z,14.50
2022-08-26T02:49:55.941Z,17.83
2022-08-26T02:52:22.860Z,17.10
2022-08-26T02:54:49.767Z,12.37
2022-08-26T02:57:17.229Z,16.40
2022-08-26T02:59:44.196Z,15.90
2022-08-26T03:02:12.281Z,13.73
2022-08-26T03:04:40.123Z,15.47
2022-08-26T03:07:07.062Z,13.53
2022-08-26T03:09:34.029Z,16.00
2022-08-26T03:12:01.333Z,25.43
2022-08-26T03:14:29.779Z,11.13
2022-08-26T03:16:56.589Z,19.50
2022-08-26T03:19:25.080Z,13.57
2022-08-26T03:21:52.960Z,20.00
2022-08-26T03:24:25.706Z,11.80
2022-08-26T03:26:53.141Z,15.70
2022-08-26T03:29:39.991Z,13.10
2022-08-26T03:32:07.475Z,15.27
2022-08-26T03:34:35.021Z,15.47
2022-08-26T03:37:02.402Z,11.47
2022-08-26T03:39:31.658Z,13.73
2022-08-26T03:41:59.823Z,19.90
2022-08-26T03:44:26.758Z,13.97
2022-08-26T03:46:54.536Z,18.00
2022-08-26T03:49:22.202Z,16.70
2022-08-26T03:51:49.001Z,14.00
2022-08-26T03:54:17.568Z,17.90
2022-08-26T03:56:46.613Z,20.50
2022-08-26T03:59:13.744Z,22.23
2022-08-26T04:01:40.899Z,13.50
2022-08-26T04:04:07.815Z,15.33
2022-08-26T04:06:38.875Z,14.63
2022-08-26T04:09:09.132Z,15.00
2022-08-26T04:11:39.262Z,15.60
2022-08-26T04:14:09.874Z,14.10
2022-08-26T04:16:37.059Z,14.53
2022-08-26T04:19:04.328Z,15.30
2022-08-26T04:21:31.605Z,15.80
2022-08-26T04:23:58.426Z,14.80
2022-08-26T04:26:25.655Z,20.47
2022-08-26T04:28:54.445Z,13.97
2022-08-26T04:31:21.853Z,13.80
2022-08-26T04:33:50.749Z,15.40
2022-08-26T04:36:19.964Z,12.70
2022-08-26T04:38:47.715Z,14.73
2022-08-26T04:41:34.489Z,14.57
2022-08-26T04:44:02.892Z,17.23
2022-08-26T04:46:32.823Z,13.80
2022-08-26T04:49:11.063Z,16.80
2022-08-26T04:51:38.572Z,20.00
2022-08-26T04:54:13.049Z,12.90
2022-08-26T04:56:44.302Z,16.47
2022-08-26T04:59:16.761Z,14.07
2022-08-26T05:01:53.942Z,14.60
2022-08-26T05:04:21.205Z,16.10
2022-08-26T05:06:49.502Z,15.40
2022-08-26T05:09:18.360Z,16.50
2022-08-26T05:11:48.604Z,16.30
2022-08-26T05:14:19.745Z,17.77
2022-08-26T05:16:47.803Z,17.43
2022-08-26T05:19:15.898Z,22.03
2022-08-26T05:21:46.390Z,20.23
2022-08-26T05:24:14.316Z,16.00
2022-08-26T05:26:41.414Z,18.70
2022-08-26T05:29:08.336Z,14.90
2022-08-26T05:31:35.734Z,16.40
2022-08-26T05:34:04.613Z,20.97
2022-08-26T05:36:34.428Z,21.83
2022-08-26T05:39:04.086Z,21.70
2022-08-26T05:41:38.434Z,17.10
2022-08-26T05:44:08.593Z,23.57
2022-08-26T05:46:37.325Z,15.90
2022-08-26T05:49:06.058Z,16.03
2022-08-26T05:51:40.325Z,22.37
2022-08-26T05:54:07.377Z,24.83
2022-08-26T05:56:38.368Z,17.30
2022-08-26T05:59:14.232Z,21.47
2022-08-26T06:01:42.349Z,16.47
2022-08-26T06:04:09.576Z,21.60
2022-08-26T06:06:37.411Z,17.87
2022-08-26T06:09:07.096Z,18.83
2022-08-26T06:11:37.796Z,22.27
2022-08-26T06:14:06.372Z,21.70
2022-08-26T06:16:38.574Z,19.27
2022-08-26T06:19:10.777Z,16.90
2022-08-26T06:21:40.203Z,25.23
2022-08-26T06:24:28.342Z,18.00
2022-08-26T06:26:58.026Z,23.37
2022-08-26T06:29:26.269Z,20.43
2022-08-26T06:31:56.283Z,25.50
2022-08-26T06:34:29.886Z,17.90
2022-08-26T06:37:02.503Z,20.03
2022-08-26T06:39:31.555Z,26.80
2022-08-26T06:41:59.684Z,21.30
2022-08-26T06:44:27.180Z,17.47
2022-08-26T06:46:54.140Z,22.63
2022-08-26T06:49:26.771Z,21.27
2022-08-26T06:52:00.737Z,21.40
2022-08-26T06:54:31.624Z,25.97
2022-08-26T06:56:59.061Z,20.70
2022-08-26T06:59:26.584Z,25.50
2022-08-26T07:01:54.654Z,22.37
2022-08-26T07:04:23.298Z,28.40
2022-08-26T07:06:52.607Z,16.87
2022-08-26T07:09:21.806Z,18.40
2022-08-26T07:11:49.196Z,22.67
2022-08-26T07:14:21.210Z,24.07
2022-08-26T07:16:49.185Z,22.30
2022-08-26T07:19:27.612Z,21.80
2022-08-26T07:21:57.707Z,31.20
2022-08-26T07:24:24.478Z,29.10
2022-08-26T07:26:59.690Z,28.50
2022-08-26T07:29:26.447Z,24.03
2022-08-26T07:31:54.047Z,21.10
2022-08-26T07:34:24.067Z,28.97
2022-08-26T07:36:51.599Z,19.97
2022-08-26T07:39:19.141Z,22.53
2022-08-26T07:41:47.310Z,21.87
2022-08-26T07:44:14.829Z,23.57
2022-08-26T07:46:42.196Z,27.03
2022-08-26T07:49:12.085Z,25.30
2022-08-26T07:51:40.250Z,29.70
2022-08-26T07:54:07.273Z,21.47
2022-08-26T07:56:34.088Z,23.43
2022-08-26T07:59:01.616Z,20.27
2022-08-26T08:01:31.467Z,24.20
2022-08-26T08:04:00.401Z,21.90
2022-08-26T08:06:29.304Z,19.50
2022-08-26T08:08:57.190Z,19.43
2022-08-26T08:11:27.220Z,24.67
2022-08-26T08:13:56.397Z,16.33
2022-08-26T08:16:25.141Z,27.97
2022-08-26T08:18:53.569Z,24.17
2022-08-26T08:21:21.868Z,17.30
2022-08-26T08:23:54.701Z,22.40
2022-08-26T08:26:22.437Z,25.50
2022-08-26T08:28:49.324Z,16.67
2022-08-26T08:31:54.348Z,23.90
2022-08-26T08:34:12.930Z,19.20
2022-08-26T08:36:39.822Z,15.67
2022-08-26T08:39:07.031Z,11.77
2022-08-26T08:41:57.133Z,13.37
2022-08-26T08:47:04.589Z,17.13
2022-08-26T08:49:34.205Z,12.90
2022-08-26T08:52:20.153Z,13.17
2022-08-26T08:54:46.958Z,15.70
2022-08-26T08:57:26.004Z,14.00
2022-08-26T09:00:07.254Z,12.10
2022-08-26T09:02:43.057Z,14.37
2022-08-26T09:05:40.219Z,13.40
2022-08-26T09:08:11.385Z,12.50
2022-08-26T09:10:38.288Z,13.23
2022-08-26T09:13:16.305Z,13.33
2022-08-26T09:15:58.585Z,14.50
2022-08-26T09:18:49.651Z,20.03
2022-08-26T09:21:18.690Z,13.23
2022-08-26T09:23:49.304Z,11.63
2022-08-26T09:26:25.951Z,18.50
2022-08-26T09:29:01.553Z,19.00
2022-08-26T09:31:34.203Z,16.90
2022-08-26T09:34:25.303Z,11.37
2022-08-26T09:36:56.289Z,14.87
2022-08-26T09:39:37.776Z,21.67
2022-08-26T09:42:23.218Z,21.53
2022-08-26T09:44:56.776Z,22.00
2022-08-26T09:47:30.161Z,16.10
2022-08-26T09:50:28.681Z,21.47
2022-08-26T09:53:21.116Z,16.40
2022-08-26T09:56:12.027Z,17.43
2022-08-26T09:58:41.993Z,17.93
2022-08-26T10:01:35.323Z,15.13
2022-08-26T10:04:24.213Z,16.30
2022-08-26T10:07:05.243Z,12.17
2022-08-26T10:09:40.531Z,13.67
2022-08-26T10:12:13.012Z,14.63
2022-08-26T10:17:30.763Z,13.00
2022-08-26T10:20:06.360Z,15.37
2022-08-26T10:23:05.537Z,21.40
2022-08-26T10:25:53.691Z,13.17
2022-08-26T10:28:57.461Z,18.90
2022-08-26T10:31:43.072Z,18.70
2022-08-26T10:34:12.372Z,13.97
2022-08-26T10:37:10.771Z,13.10
2022-08-26T10:39:57.257Z,19.73
2022-08-26T10:42:40.253Z,8.57
2022-08-26T10:45:25.350Z,15.17
2022-08-26T10:47:55.877Z,16.40
2022-08-26T10:50:26.118Z,13.83
2022-08-26T10:53:08.753Z,14.57
2022-08-26T10:55:35.577Z,14.70
2022-08-26T10:58:26.401Z,21.30
2022-08-26T11:01:42.889Z,16.77
2022-08-26T11:04:12.902Z,17.80
2022-08-26T11:06:40.398Z,11.77
2022-08-26T11:09:09.275Z,13.43
2022-08-26T11:11:41.921Z,16.43
2022-08-26T11:14:29.105Z,18.63
2022-08-26T11:16:58.706Z,12.80
2022-08-26T11:19:59.334Z,20.37
2022-08-26T11:22:27.382Z,15.00
2022-08-26T11:24:57.175Z,27.63
2022-08-26T11:27:27.132Z,13.70
2022-08-26T11:30:19.627Z,15.73
2022-08-26T11:32:51.448Z,17.67
2022-08-26T11:37:57.370Z,13.00
2022-08-26T11:40:29.491Z,15.87
2022-08-26T11:43:00.669Z,13.80
2022-08-26T11:45:38.098Z,14.87
2022-08-26T11:48:26.747Z,14.93
2022-08-26T11:51:21.656Z,16.20
2022-08-26T11:53:49.123Z,14.63
2022-08-26T11:56:36.674Z,14.23
2022-08-26T11:59:09.643Z,15.07
2022-08-26T12:01:39.847Z,15.93
2022-08-26T12:04:09.936Z,15.43
2022-08-26T12:06:46.510Z,18.80
2022-08-26T12:09:26.925Z,13.13
2022-08-26T12:12:08.701Z,14.60
2022-08-26T12:14:39.659Z,13.97
2022-08-26T12:17:19.314Z,17.90
2022-08-26T12:19:49.278Z,18.20
2022-08-26T12:22:32.416Z,19.63
2022-08-26T12:25:02.715Z,15.37
2022-08-26T12:27:32.652Z,11.33
2022-08-26T12:30:01.068Z,13.13
2022-08-26T12:32:30.332Z,13.03
2022-08-26T12:34:58.061Z,21.20
2022-08-26T12:37:26.668Z,25.37
2022-08-26T12:39:54.129Z,18.63
2022-08-26T12:42:23.135Z,11.63
2022-08-26T12:44:59.076Z,19.53
2022-08-26T12:47:35.191Z,13.03
2022-08-26T12:50:23.908Z,15.23
2022-08-26T12:53:21.967Z,17.03
2022-08-26T12:55:53.984Z,26.27
2022-08-26T12:58:33.526Z,15.73
2022-08-26T13:01:06.716Z,10.50
2022-08-26T13:03:54.492Z,11.40
2022-08-26T13:06:40.393Z,21.60
2022-08-26T13:09:09.906Z,15.27
2022-08-26T13:11:39.492Z,13.60
2022-08-26T13:14:23.772Z,15.57
2022-08-26T13:16:52.148Z,16.00
2022-08-26T13:19:22.057Z,15.67
2022-08-26T13:21:55.302Z,18.10
2022-08-26T13:24:30.729Z,17.20
2022-08-26T13:26:57.686Z,16.97
2022-08-26T13:29:25.245Z,16.17
2022-08-26T13:31:52.363Z,15.43
2022-08-26T13:34:21.887Z,17.83
2022-08-26T13:36:54.129Z,14.93
2022-08-26T13:39:22.591Z,30.60
2022-08-26T13:41:49.929Z,20.90
2022-08-26T13:44:17.335Z,18.20
2022-08-26T13:49:12.716Z,21.83
2022-08-26T13:51:39.899Z,16.23
2022-08-26T13:54:07.485Z,13.47
2022-08-26T13:56:35.510Z,16.30
2022-08-26T13:59:02.940Z,22.40
2022-08-26T14:01:31.299Z,18.37
2022-08-26T14:03:58.482Z,17.20
2022-08-26T14:06:25.820Z,22.17
2022-08-26T14:08:52.716Z,14.10
2022-08-26T14:11:19.810Z,14.63
2022-08-26T14:13:46.615Z,13.03
2022-08-26T14:16:24.312Z,11.40
2022-08-26T14:18:51.603Z,18.67
2022-08-26T14:21:18.835Z,9.40
2022-08-26T14:23:45.663Z,13.00
2022-08-26T14:26:28.549Z,11.70
2022-08-26T14:29:00.372Z,12.03
2022-08-26T14:31:29.683Z,13.17
2022-08-26T14:34:04.798Z,10.53
2022-08-26T14:36:32.370Z,13.70
2022-08-26T14:39:11.452Z,15.43
2022-08-26T14:41:53.975Z,10.73
2022-08-26T14:44:24.515Z,12.93
2022-08-26T14:46:52.887Z,14.20
2022-08-26T14:49:20.533Z,17.43
2022-08-26T14:51:47.640Z,11.63
2022-08-26T14:54:16.175Z,20.40
2022-08-26T14:56:51.901Z,12.53
2022-08-26T14:59:25.464Z,12.77
2022-08-26T15:01:52.991Z,22.13
2022-08-26T15:04:20.446Z,20.90
2022-08-26T15:06:47.790Z,15.20
2022-08-26T15:09:15.777Z,21.80
2022-08-26T15:11:47.794Z,15.43
2022-08-26T15:14:19.712Z,19.97
2022-08-26T15:16:53.815Z,19.93
2022-08-26T15:19:21.608Z,10.80
2022-08-26T15:21:49.103Z,13.43
2022-08-26T15:24:18.742Z,18.13
2022-08-26T15:26:46.750Z,14.13
2022-08-26T15:29:13.895Z,15.30
2022-08-26T15:31:40.848Z,14.20
2022-08-26T15:34:14.513Z,22.03
2022-08-26T15:36:44.897Z,17.40
2022-08-26T15:39:12.292Z,17.80
2022-08-26T15:41:39.403Z,15.27
2022-08-26T15:44:07.830Z,28.90
2022-08-26T15:46:35.615Z,14.57
2022-08-26T15:49:04.379Z,11.20
2022-08-26T15:51:35.429Z,12.90
2022-08-26T15:54:13.558Z,14.10
2022-08-26T15:56:40.387Z,14.30
2022-08-26T15:59:08.260Z,13.63
2022-08-26T16:01:35.632Z,15.60
2022-08-26T16:04:03.644Z,15.93
2022-08-26T16:06:33.313Z,14.77
2022-08-26T16:09:00.647Z,16.00
2022-08-26T16:11:28.447Z,15.83
2022-08-26T16:13:55.651Z,14.40
2022-08-26T16:16:23.138Z,28.50
2022-08-26T16:18:50.063Z,18.97
2022-08-26T16:21:19.426Z,15.63
2022-08-26T16:23:46.754Z,21.53
2022-08-26T16:26:26.067Z,19.00
2022-08-26T16:28:53.685Z,22.43
2022-08-26T16:31:21.593Z,16.63
2022-08-26T16:33:48.613Z,11.17
2022-08-26T16:36:16.338Z,17.30
2022-08-26T16:38:49.879Z,12.20
2022-08-26T16:41:17.668Z,13.77
2022-08-26T16:43:44.833Z,20.30
2022-08-26T16:46:14.097Z,14.57
2022-08-26T16:48:41.252Z,26.57
2022-08-26T16:51:12.582Z,13.57
2022-08-26T16:53:39.665Z,21.80
2022-08-26T16:56:06.703Z,20.13
2022-08-26T16:58:33.971Z,14.77
2022-08-26T17:01:01.237Z,12.43
2022-08-26T17:03:28.093Z,13.47
2022-08-26T17:05:54.884Z,16.10
2022-08-26T17:08:24.412Z,16.87
2022-08-26T17:10:56.223Z,13.53
2022-08-26T17:13:24.081Z,25.63
2022-08-26T17:16:02.264Z,18.67
2022-08-26T17:18:31.008Z,14.20
2022-08-26T17:21:02.477Z,20.20
2022-08-26T17:23:29.432Z,18.97
2022-08-26T17:25:56.277Z,23.27
2022-08-26T17:28:23.053Z,18.30
2022-08-26T17:30:49.914Z,12.13
2022-08-26T17:33:18.662Z,15.57
2022-08-26T17:35:48.989Z,18.93
2022-08-26T17:38:15.785Z,15.67
2022-08-26T17:40:42.569Z,15.67
2022-08-26T17:43:12.362Z,16.90
2022-08-26T17:45:40.520Z,15.10
2022-08-26T17:48:08.094Z,11.03
2022-08-26T17:50:35.635Z,8.03
2022-08-26T17:53:02.573Z,12.23
2022-08-26T17:55:29.351Z,14.63
2022-08-26T17:57:56.163Z,17.13
2022-08-26T18:00:26.584Z,7.33
2022-08-26T18:02:56.717Z,11.77
2022-08-26T18:05:23.883Z,9.87
2022-08-26T18:07:51.462Z,8.83
2022-08-26T18:10:20.432Z,14.60
2022-08-26T18:12:47.737Z,12.23
2022-08-26T18:15:18.381Z,11.03
2022-08-26T18:17:45.493Z,9.53
2022-08-26T18:20:15.536Z,13.77
2022-08-26T18:22:43.580Z,8.20
2022-08-26T18:25:11.917Z,12.47
2022-08-26T18:27:39.017Z,9.97
2022-08-26T18:30:13.423Z,8.90
2022-08-26T18:32:42.752Z,10.23
2022-08-26T18:35:10.376Z,7.53
2022-08-26T18:37:37.536Z,8.23
2022-08-26T18:40:06.762Z,8.27
2022-08-26T18:42:34.084Z,7.43
2022-08-26T18:45:01.152Z,11.80
2022-08-26T18:47:28.437Z,16.60
2022-08-26T18:49:55.215Z,10.30
2022-08-26T18:52:22.636Z,5.90
2022-08-26T18:54:50.981Z,11.40
2022-08-26T18:57:17.803Z,8.37
2022-08-26T18:59:44.586Z,6.43
2022-08-26T19:02:11.722Z,8.00
2022-08-26T19:04:38.714Z,13.67
2022-08-26T19:07:06.852Z,23.37
2022-08-26T19:09:33.888Z,11.10
2022-08-26T19:12:04.065Z,15.40
2022-08-26T19:14:31.924Z,13.00
2022-08-26T19:16:59.154Z,12.10
2022-08-26T19:19:25.986Z,15.17
2022-08-26T19:21:53.634Z,14.30
2022-08-26T19:24:21.288Z,10.40
2022-08-26T19:26:51.365Z,18.90
2022-08-26T19:29:26.782Z,12.27
2022-08-26T19:31:53.564Z,10.40
2022-08-26T19:34:20.951Z,13.70
2022-08-26T19:36:48.543Z,8.50
2022-08-26T19:39:15.433Z,11.17
2022-08-26T19:41:42.266Z,13.57
2022-08-26T19:44:13.090Z,9.60
2022-08-26T19:46:40.272Z,9.27
2022-08-26T19:49:07.189Z,12.50
2022-08-26T19:51:35.505Z,7.97
2022-08-26T19:54:02.771Z,12.43
2022-08-26T19:56:29.889Z,8.83
2022-08-26T19:58:57.303Z,8.53
2022-08-26T20:01:24.934Z,11.80
2022-08-26T20:03:51.980Z,9.50
2022-08-26T20:06:20.052Z,8.83
2022-08-26T20:08:50.836Z,11.10
2022-08-26T20:11:20.754Z,10.20
2022-08-26T20:13:48.004Z,6.73
2022-08-26T20:16:16.216Z,7.60
2022-08-26T20:19:02.890Z,6.93
2022-08-26T20:21:34.114Z,5.67
2022-08-26T20:24:10.904Z,6.40
2022-08-26T20:26:39.548Z,5.50
2022-08-26T20:29:07.931Z,4.53
2022-08-26T20:31:35.493Z,4.07
2022-08-26T20:34:03.061Z,5.40
2022-08-26T20:36:30.167Z,4.27
2022-08-26T20:38:57.817Z,3.97
2022-08-26T20:41:25.747Z,16.50
2022-08-26T20:43:53.285Z,4.50
2022-08-26T20:46:24.488Z,4.60
2022-08-26T20:48:52.909Z,5.07
2022-08-26T20:51:21.008Z,6.90
2022-08-26T20:53:47.854Z,6.50
2022-08-26T20:56:16.383Z,6.80
2022-08-26T20:58:43.216Z,6.33
2022-08-26T21:01:20.695Z,5.83
2022-08-26T21:03:50.451Z,5.40
2022-08-26T21:06:17.285Z,8.43
2022-08-26T21:08:45.150Z,11.33
2022-08-26T21:11:12.480Z,5.80
2022-08-26T21:14:01.652Z,7.30
2022-08-26T21:16:26.547Z,6.47
2022-08-26T21:18:53.580Z,6.13
2022-08-26T21:21:25.227Z,7.00
2022-08-26T21:23:52.302Z,8.93
2022-08-26T21:26:19.417Z,6.87
2022-08-26T21:28:46.598Z,8.90
2022-08-26T21:31:16.642Z,9.90
2022-08-26T21:33:43.513Z,6.60
2022-08-26T21:36:11.328Z,9.70
2022-08-26T21:38:39.012Z,9.20
2022-08-26T21:41:09.052Z,7.90
2022-08-26T21:43:36.832Z,10.10
2022-08-26T21:46:14.353Z,8.03
2022-08-26T21:48:50.926Z,9.30
2022-08-26T21:51:19.558Z,7.77
2022-08-26T21:53:46.455Z,7.43
2022-08-26T21:56:15.896Z,9.73
2022-08-26T21:58:42.969Z,7.10
2022-08-26T22:01:12.123Z,9.23
2022-08-26T22:03:47.623Z,7.93
2022-08-26T22:06:17.512Z,8.60
2022-08-26T22:08:44.316Z,6.70
2022-08-26T22:11:11.182Z,9.50
2022-08-26T22:13:40.162Z,8.00
2022-08-26T22:16:08.024Z,8.03
2022-08-26T22:18:35.987Z,7.80
2022-08-26T22:21:06.631Z,9.40
2022-08-26T22:23:35.209Z,10.97
2022-08-26T22:26:02.400Z,6.43
2022-08-26T22:28:29.269Z,7.13
2022-08-26T22:30:56.056Z,9.20
2022-08-26T22:33:23.375Z,6.90
2022-08-26T22:35:51.945Z,6.77
2022-08-26T22:38:20.040Z,6.73
2022-08-26T22:40:50.361Z,7.17
2022-08-26T22:43:18.892Z,10.07
2022-08-26T22:45:48.320Z,8.30
2022-08-26T22:48:17.750Z,6.10
2022-08-26T22:50:46.665Z,12.07
2022-08-26T22:53:14.239Z,7.40
2022-08-26T22:55:41.407Z,6.60
2022-08-26T22:58:08.293Z,16.20
2022-08-26T23:00:35.133Z,12.43
2022-08-26T23:03:03.034Z,10.37
2022-08-26T23:05:30.877Z,7.63
2022-08-26T23:07:58.657Z,7.27
2022-08-26T23:10:25.824Z,6.83
2022-08-26T23:12:53.476Z,6.40
2022-08-26T23:15:21.292Z,8.90
2022-08-26T23:17:58.432Z,12.30
2022-08-26T23:20:27.252Z,6.50
2022-08-26T23:22:54.897Z,9.93
2022-08-26T23:25:22.849Z,8.30
2022-08-26T23:27:52.123Z,6.67
2022-08-26T23:30:22.376Z,6.53
2022-08-26T23:32:49.412Z,9.93
2022-08-26T23:35:20.488Z,9.57
2022-08-26T23:37:52.997Z,11.83
2022-08-26T23:40:29.019Z,9.43
2022-08-26T23:42:57.552Z,6.40
2022-08-26T23:45:25.395Z,7.97
2022-08-26T23:47:53.113Z,6.37
2022-08-26T23:50:22.371Z,6.83
2022-08-26T23:53:21.904Z,10.10
2022-08-26T23:55:51.986Z,6.40
2022-08-26T23:58:21.235Z,9.63
